Time;durP1;ratioP1;P1;durP2;ratioP2;P2;SDS_P1;SDS_P2;PMS_P1;PMS_P2;Temp;Humidity;BMP_temperature;BMP_pressure;BME280_temperature;BME280_humidity;BME280_pressure;Samples;Min_cycle;Max_cycle;Signal;HPM_P1;HPM_P2
2022/05/25 00:01:49;;;;;;;12.65;8.52;;;;;;;16.51;68.45;94657.06;5108590;28;20039;-69
2022/05/25 00:04:14;;;;;;;9.10;8.20;;;;;;;16.54;68.79;94659.34;5109822;28;20031;-70
2022/05/25 00:06:40;;;;;;;9.27;8.30;;;;;;;16.58;68.51;94656.41;5120504;28;20055;-69
2022/05/25 00:09:05;;;;;;;9.82;8.10;;;;;;;16.48;68.86;94648.72;5112554;28;20027;-70
2022/05/25 00:11:31;;;;;;;9.23;8.27;;;;;;;16.47;68.65;94655.78;5127259;28;20099;-69
2022/05/25 00:13:56;;;;;;;10.35;8.65;;;;;;;16.40;68.82;94657.41;5128563;27;20023;-69
2022/05/25 00:16:22;;;;;;;10.00;8.43;;;;;;;16.33;69.02;94653.03;5122358;27;20057;-69
2022/05/25 00:21:31;;;;;;;9.60;8.60;;;;;;;16.31;69.26;94654.00;5109325;28;20401;-69
2022/05/25 00:23:57;;;;;;;9.35;8.30;;;;;;;16.25;69.40;94646.78;5115115;28;20027;-69
2022/05/25 00:26:22;;;;;;;9.55;8.65;;;;;;;16.30;69.24;94654.97;5092793;28;20032;-69
2022/05/25 00:28:48;;;;;;;9.40;8.50;;;;;;;16.29;69.46;94653.31;5097914;28;20034;-69
2022/05/25 00:31:14;;;;;;;8.63;7.80;;;;;;;16.32;69.46;94657.41;5089146;28;20378;-69
2022/05/25 00:33:39;;;;;;;10.30;7.85;;;;;;;16.31;69.16;94659.22;5107680;28;20057;-70
2022/05/25 00:36:05;;;;;;;9.15;7.93;;;;;;;16.37;69.03;94657.75;5107391;28;20489;-69
2022/05/25 00:38:30;;;;;;;9.30;8.40;;;;;;;16.41;68.97;94653.81;5108537;28;20027;-69
2022/05/25 00:40:56;;;;;;;9.70;7.85;;;;;;;16.37;68.80;94652.50;5140438;27;20039;-69
2022/05/25 00:43:22;;;;;;;9.27;8.38;;;;;;;16.38;68.48;94655.94;5123364;28;20108;-69
2022/05/25 00:45:53;;;;;;;11.13;7.80;;;;;;;16.31;68.70;94638.25;5111072;28;20051;-69
2022/05/25 00:48:21;;;;;;;;;;;;;;;16.34;68.78;94652.84;5109721;28;20042;-69
2022/05/25 00:53:32;;;;;;;10.63;7.88;;;;;;;16.28;68.57;94658.75;5098408;28;20038;-69
2022/05/25 00:55:57;;;;;;;9.15;8.05;;;;;;;16.26;68.80;94650.22;5079616;28;20178;-69
2022/05/25 00:58:23;;;;;;;12.13;8.63;;;;;;;16.24;69.15;94644.31;5075431;28;20032;-69
2022/05/25 01:00:48;;;;;;;12.90;8.48;;;;;;;16.27;69.00;94663.19;5094330;28;20043;-69
2022/05/25 01:03:15;;;;;;;10.50;8.50;;;;;;;16.27;68.98;94657.13;5112240;28;20030;-69
2022/05/25 01:05:52;;;;;;;13.00;8.35;;;;;;;16.27;68.89;94667.59;5110864;28;20043;-69
2022/05/25 01:08:30;;;;;;;9.73;8.55;;;;;;;16.23;69.03;94654.00;5109171;28;20075;-69
2022/05/25 01:11:17;;;;;;;9.88;8.05;;;;;;;16.15;69.54;94659.25;5093066;28;20498;-69
2022/05/25 01:13:56;;;;;;;9.80;8.68;;;;;;;16.13;69.34;94653.38;5106486;28;20017;-69
2022/05/25 01:16:40;;;;;;;9.93;8.20;;;;;;;16.18;69.28;94668.56;5092126;28;20035;-69
2022/05/25 01:19:21;;;;;;;10.10;8.52;;;;;;;16.17;69.36;94674.81;5094335;28;20512;-69
2022/05/25 01:22:16;;;;;;;10.93;8.57;;;;;;;16.17;69.19;94677.44;5110601;28;20184;-69
2022/05/25 01:25:11;;;;;;;8.80;7.95;;;;;;;16.14;69.20;94672.53;5097635;28;20047;-69
2022/05/25 01:27:47;;;;;;;14.48;8.02;;;;;;;16.02;69.16;94688.56;5097199;28;20036;-69
2022/05/25 01:30:31;;;;;;;13.50;8.20;;;;;;;15.97;69.39;94683.00;5077476;28;20030;-69
2022/05/25 01:33:05;;;;;;;10.07;8.55;;;;;;;15.94;69.77;94688.56;5078932;28;20046;-69
2022/05/25 01:35:42;;;;;;;10.43;9.02;;;;;;;15.94;69.67;94677.28;5091894;28;20085;-68
2022/05/25 01:38:22;;;;;;;9.95;8.27;;;;;;;15.89;70.08;94674.31;5097760;28;20035;-69
2022/05/25 01:41:08;;;;;;;11.60;8.40;;;;;;;15.87;69.84;94682.31;5093230;28;20040;-69
2022/05/25 01:43:40;;;;;;;10.18;8.98;;;;;;;15.87;70.15;94690.19;5102795;28;20507;-69
2022/05/25 01:46:20;;;;;;;9.77;8.20;;;;;;;15.85;70.03;94684.28;5092522;28;20040;-69
2022/05/25 01:48:46;;;;;;;10.50;8.27;;;;;;;15.83;69.81;94670.56;5084859;28;20492;-69
2022/05/25 01:51:18;;;;;;;9.75;8.75;;;;;;;15.79;70.21;94684.94;5108710;28;20024;-69
2022/05/25 01:53:44;;;;;;;11.02;9.13;;;;;;;15.75;70.26;94688.88;5094960;28;20031;-69
2022/05/25 01:56:11;;;;;;;11.00;9.35;;;;;;;15.75;70.40;94686.25;5080141;28;20545;-69
2022/05/25 01:58:42;;;;;;;12.98;9.57;;;;;;;15.73;70.45;94688.19;5074469;28;20032;-69
2022/05/25 02:01:08;;;;;;;11.15;10.00;;;;;;;15.58;71.00;94678.34;5106848;28;20028;-69
2022/05/25 02:06:47;;;;;;;12.88;10.07;;;;;;;15.62;70.91;94697.97;5108599;28;20088;-69
2022/05/25 02:09:44;;;;;;;12.65;10.07;;;;;;;15.59;71.03;94694.84;5082333;28;20413;-69
2022/05/25 02:12:14;;;;;;;10.95;9.85;;;;;;;15.59;70.93;94698.28;5109166;28;20112;-69
2022/05/25 02:14:42;;;;;;;10.77;9.67;;;;;;;15.53;71.08;94698.94;5108230;28;21077;-69
2022/05/25 02:17:29;;;;;;;11.93;9.95;;;;;;;15.52;71.07;94699.94;5108658;28;20034;-69
2022/05/25 02:20:21;;;;;;;14.75;9.60;;;;;;;15.55;70.74;94699.59;5109266;28;20039;-69
2022/05/25 02:22:51;;;;;;;12.10;9.68;;;;;;;15.53;70.55;94701.56;5085931;28;20039;-70
2022/05/25 02:25:19;;;;;;;12.15;9.57;;;;;;;15.54;70.43;94713.66;5079696;28;20063;-69
2022/05/25 02:28:09;;;;;;;10.60;9.45;;;;;;;15.50;70.38;94720.19;5103401;28;20573;-69
2022/05/25 02:30:35;;;;;;;10.73;9.27;;;;;;;15.55;70.41;94720.53;5098801;28;20565;-70
2022/05/25 02:33:02;;;;;;;10.85;9.75;;;;;;;15.52;70.37;94718.25;5098306;28;20074;-70
2022/05/25 02:35:28;;;;;;;10.80;9.68;;;;;;;15.42;70.88;94722.78;5101376;28;20042;-70
2022/05/25 02:37:54;;;;;;;11.10;10.00;;;;;;;15.44;70.82;94727.88;5066612;28;20028;-70
2022/05/25 02:40:19;;;;;;;12.93;10.57;;;;;;;15.43;70.95;94724.41;5073945;28;20031;-72
2022/05/25 02:42:45;;;;;;;12.93;10.35;;;;;;;15.39;70.70;94726.53;5101209;28;20229;-71
2022/05/25 02:45:11;;;;;;;10.95;9.82;;;;;;;15.41;70.93;94731.63;5084612;28;20112;-71
2022/05/25 02:47:37;;;;;;;12.50;11.20;;;;;;;15.40;70.56;94738.63;5089055;28;20035;-71
2022/05/25 02:50:04;;;;;;;12.40;10.40;;;;;;;15.38;70.67;94745.03;5103281;28;20040;-71
2022/05/25 02:52:29;;;;;;;12.82;10.45;;;;;;;15.36;70.64;94741.75;5098318;28;20024;-71
2022/05/25 02:54:55;;;;;;;12.05;10.55;;;;;;;15.31;70.94;94741.41;5100526;28;20028;-70
2022/05/25 02:57:20;;;;;;;12.52;11.10;;;;;;;15.25;71.35;94744.66;5101400;28;20035;-70
2022/05/25 02:59:46;;;;;;;12.82;11.38;;;;;;;15.26;71.13;94747.09;5081740;28;20034;-70
2022/05/25 03:02:12;;;;;;;11.75;10.63;;;;;;;15.25;71.22;94748.09;5106809;28;20023;-71
2022/05/25 03:04:38;;;;;;;13.43;11.02;;;;;;;15.23;71.03;94757.06;5091631;28;20477;-70
2022/05/25 03:07:04;;;;;;;16.15;10.90;;;;;;;15.24;71.06;94753.47;5081221;28;20024;-70
2022/05/25 03:09:30;;;;;;;12.50;11.20;;;;;;;15.18;71.36;94747.91;5108292;28;20043;-70
2022/05/25 03:11:55;;;;;;;12.88;11.18;;;;;;;15.22;70.71;94739.75;5100878;28;20035;-70
2022/05/25 03:14:21;;;;;;;12.48;11.25;;;;;;;15.25;70.95;94749.88;5089855;27;20043;-68
2022/05/25 03:16:46;;;;;;;12.55;11.15;;;;;;;15.12;71.38;94751.13;5102604;28;20024;-68
2022/05/25 03:19:12;;;;;;;13.23;11.52;;;;;;;15.13;71.28;94751.97;5107543;28;20027;-67
2022/05/25 03:21:37;;;;;;;12.18;10.85;;;;;;;15.06;71.61;94753.56;5100021;28;20024;-68
2022/05/25 03:24:03;;;;;;;13.30;11.90;;;;;;;14.94;72.11;94760.84;5104846;28;20035;-68
2022/05/25 03:26:28;;;;;;;13.77;12.32;;;;;;;14.97;72.14;94761.34;5107819;28;20679;-68
2022/05/25 03:28:54;;;;;;;17.08;11.82;;;;;;;14.97;72.10;94774.44;5111559;27;20028;-68
2022/05/25 03:31:19;;;;;;;13.43;11.98;;;;;;;14.98;72.08;94775.25;5113555;27;20028;-68
2022/05/25 03:33:45;;;;;;;13.40;11.50;;;;;;;15.03;71.83;94775.59;5109078;28;20045;-67
2022/05/25 03:36:10;;;;;;;12.85;11.55;;;;;;;15.04;71.82;94779.84;5106784;28;20045;-68
2022/05/25 03:38:36;;;;;;;13.23;11.93;;;;;;;15.04;71.81;94779.84;5105267;28;20028;-68
2022/05/25 03:41:02;;;;;;;12.60;11.27;;;;;;;15.06;71.49;94785.75;5103927;28;20036;-68
2022/05/25 03:43:33;;;;;;;13.48;11.95;;;;;;;15.14;71.42;94801.50;5101747;28;20023;-68
2022/05/25 03:45:59;;;;;;;15.13;11.73;;;;;;;15.11;71.36;94796.59;5056978;28;20501;-69
2022/05/25 03:48:24;;;;;;;12.63;11.32;;;;;;;15.13;71.46;94793.81;5078630;28;20029;-69
2022/05/25 03:50:50;;;;;;;13.55;12.15;;;;;;;15.06;71.34;94798.84;5082304;28;20033;-69
2022/05/25 03:53:15;;;;;;;13.02;11.68;;;;;;;15.03;71.41;94804.38;5068475;28;20055;-70
2022/05/25 03:55:41;;;;;;;14.70;12.77;;;;;;;15.05;71.85;94814.69;5088043;28;20047;-70
2022/05/25 03:58:07;;;;;;;16.05;13.18;;;;;;;15.10;71.46;94805.41;5087188;28;20027;-69
2022/05/25 04:00:33;;;;;;;14.15;12.70;;;;;;;15.07;71.37;94790.03;5087234;28;20024;-69
2022/05/25 04:03:02;;;;;;;15.13;13.20;;;;;;;15.09;71.77;94806.38;5077556;28;20103;-69
2022/05/25 04:05:28;;;;;;;16.13;13.05;;;;;;;15.14;71.74;94811.16;5094354;28;20036;-71
2022/05/25 04:07:56;;;;;;;15.55;13.18;;;;;;;15.73;69.80;94801.63;5051562;28;20077;-69
2022/05/25 04:10:21;;;;;;;16.30;12.82;;;;;;;16.06;68.87;94806.97;5088523;28;20038;-70
2022/05/25 04:12:47;;;;;;;16.95;12.35;;;;;;;16.54;67.32;94811.44;5088619;28;20020;-70
2022/05/25 04:15:14;;;;;;;14.90;12.40;;;;;;;16.94;65.97;94822.94;5089319;28;20107;-70
2022/05/25 04:17:40;;;;;;;16.38;12.07;;;;;;;17.26;64.62;94815.97;5082305;28;20047;-71
2022/05/25 04:20:06;;;;;;;18.92;11.93;;;;;;;17.66;63.11;94801.06;5082994;28;20029;-70
2022/05/25 04:22:32;;;;;;;14.65;12.00;;;;;;;17.93;62.40;94827.91;5083859;28;20478;-71
2022/05/25 04:25:01;;;;;;;14.07;11.13;;;;;;;18.42;60.88;94819.75;5079942;28;20066;-70
2022/05/25 04:27:27;;;;;;;13.25;11.20;;;;;;;18.71;59.66;94817.22;5074088;28;20493;-70
2022/05/25 04:29:53;;;;;;;12.77;11.30;;;;;;;19.12;58.14;94809.00;5091727;28;20051;-70
2022/05/25 04:32:18;;;;;;;12.52;11.23;;;;;;;19.36;57.58;94804.47;5092159;28;20103;-70
2022/05/25 04:34:44;;;;;;;14.98;11.60;;;;;;;19.66;56.71;94802.69;5092976;28;20032;-71
2022/05/25 04:39:53;;;;;;;12.43;11.02;;;;;;;20.08;55.18;94809.88;5091215;28;20174;-69
2022/05/25 04:42:20;;;;;;;12.52;11.23;;;;;;;20.34;54.40;94807.72;5091233;28;20028;-70
2022/05/25 04:44:45;;;;;;;12.25;11.02;;;;;;;20.42;54.10;94802.31;5072320;28;20032;-69
2022/05/25 04:47:12;;;;;;;13.23;11.32;;;;;;;20.30;54.54;94812.56;5100004;28;20039;-70
2022/05/25 04:49:42;;;;;;;14.40;12.05;;;;;;;19.72;56.35;94824.84;5102045;28;20032;-70
2022/05/25 04:52:07;;;;;;;12.55;11.15;;;;;;;19.33;57.21;94804.84;5111287;28;20114;-70
2022/05/25 04:54:33;;;;;;;12.75;11.40;;;;;;;19.21;57.67;94820.25;5113645;28;20024;-70
2022/05/25 04:59:44;;;;;;;13.80;11.80;;;;;;;19.03;58.48;94810.09;5098827;28;20047;-69
2022/05/25 05:02:09;;;;;;;13.05;11.65;;;;;;;19.08;58.41;94818.25;5110831;27;20115;-70
2022/05/25 05:04:37;;;;;;;14.32;11.32;;;;;;;18.93;58.99;94812.16;5095342;28;20051;-69
2022/05/25 05:07:03;;;;;;;12.52;11.23;;;;;;;19.09;58.52;94819.91;5104433;28;20081;-70
2022/05/25 05:09:33;;;;;;;13.30;11.40;;;;;;;19.04;58.92;94816.97;5075256;28;20020;-69
2022/05/25 05:11:58;;;;;;;14.60;11.43;;;;;;;19.17;58.59;94816.38;5107983;28;20480;-69
2022/05/25 05:14:24;;;;;;;13.05;11.07;;;;;;;19.22;58.66;94821.88;5111010;28;20047;-69
2022/05/25 05:16:55;;;;;;;14.45;11.55;;;;;;;19.24;58.63;94816.47;5092486;28;20039;-69
2022/05/25 05:19:20;;;;;;;;;;;;;;;19.12;59.11;94826.63;5105267;28;20027;-69
2022/05/25 05:21:45;;;;;;;12.60;11.02;;;;;;;19.20;58.77;94819.47;5093247;28;19916;-69
2022/05/25 05:24:11;;;;;;;11.65;10.45;;;;;;;19.14;58.79;94827.25;5104603;28;20031;-69
2022/05/25 05:26:36;;;;;;;13.35;10.85;;;;;;;19.13;59.09;94815.06;5112433;28;20489;-69
2022/05/25 05:29:02;;;;;;;12.05;10.43;;;;;;;19.16;58.79;94820.78;5110792;28;20039;-69
2022/05/25 05:31:27;;;;;;;12.43;10.38;;;;;;;19.26;58.97;94831.09;5110834;28;20035;-69
2022/05/25 05:33:54;;;;;;;16.65;11.18;;;;;;;19.35;58.29;94834.44;5107848;28;20503;-69
2022/05/25 05:36:25;;;;;;;16.88;12.93;;;;;;;19.34;59.96;94835.47;5110099;28;20492;-70
2022/05/25 05:38:53;;;;;;;16.55;13.65;;;;;;;19.23;59.75;94838.53;5091135;28;20495;-69
2022/05/25 05:41:19;;;;;;;15.05;13.10;;;;;;;19.04;60.80;94819.59;5110020;28;20034;-69
2022/05/25 05:43:45;;;;;;;17.23;13.50;;;;;;;19.30;59.66;94852.59;5094941;28;20034;-70
2022/05/25 05:46:10;;;;;;;14.55;13.05;;;;;;;19.25;60.15;94854.94;5111889;28;20051;-69
2022/05/25 05:48:36;;;;;;;15.43;13.82;;;;;;;19.18;60.37;94860.94;5110550;28;20023;-69
2022/05/25 05:51:03;;;;;;;19.70;13.60;;;;;;;19.08;60.66;94854.28;5110476;28;20036;-69
2022/05/25 05:53:29;;;;;;;18.45;14.43;;;;;;;19.08;60.55;94872.72;5107758;28;20032;-70
2022/05/25 05:55:55;;;;;;;14.27;12.65;;;;;;;19.13;60.74;94863.28;5095546;27;20142;-69
2022/05/25 05:58:20;;;;;;;14.90;12.57;;;;;;;19.30;60.57;94874.47;5093571;28;20105;-70
2022/05/25 06:00:46;;;;;;;15.18;13.35;;;;;;;19.48;59.95;94868.88;5109835;28;20477;-70
2022/05/25 06:03:12;;;;;;;14.02;11.98;;;;;;;19.66;59.24;94878.28;5098794;28;20051;-69
2022/05/25 06:05:37;;;;;;;17.52;13.45;;;;;;;19.83;59.06;94858.66;5093227;28;20056;-72
2022/05/25 06:08:14;;;;;;;20.60;13.02;;;;;;;20.00;58.38;94873.28;5093355;28;20070;-70
2022/05/25 06:10:40;;;;;;;15.40;12.52;;;;;;;20.05;58.05;94862.16;5074651;28;20126;-70
2022/05/25 06:13:07;;;;;;;19.90;12.50;;;;;;;20.02;58.27;94873.91;5106377;28;20237;-70
2022/05/25 06:21:02;;;;;;;17.10;12.90;;;;;;;20.29;57.89;94864.50;5104870;27;20179;-70
2022/05/25 06:23:27;;;;;;;16.67;12.85;;;;;;;20.30;57.70;94867.94;5116835;27;20489;-70
2022/05/25 06:25:53;;;;;;;14.35;12.55;;;;;;;20.38;57.95;94864.38;5093099;28;20032;-70
2022/05/25 06:28:19;;;;;;;14.10;12.38;;;;;;;20.47;57.61;94868.53;5092385;28;20028;-70
2022/05/25 06:30:44;;;;;;;18.05;12.88;;;;;;;20.64;56.71;94866.50;5109641;28;20028;-73
2022/05/25 06:33:10;;;;;;;17.48;12.80;;;;;;;20.64;56.69;94872.59;5094670;28;20050;-74
2022/05/25 06:35:35;;;;;;;14.13;12.23;;;;;;;20.68;56.45;94862.50;5072879;28;20036;-72
2022/05/25 06:38:01;;;;;;;13.73;11.15;;;;;;;20.80;56.10;94874.19;5078419;28;20038;-71
2022/05/25 06:40:27;;;;;;;15.38;10.48;;;;;;;20.98;56.07;94877.22;5103191;28;20038;-71
2022/05/25 06:42:52;;;;;;;12.98;11.02;;;;;;;21.04;55.29;94872.19;5115597;27;20028;-71
2022/05/25 06:45:18;;;;;;;13.45;11.65;;;;;;;21.19;55.48;94875.53;5109386;28;20060;-71
2022/05/25 06:47:44;;;;;;;14.20;11.35;;;;;;;21.33;54.75;94873.81;5092488;28;20022;-73
2022/05/25 06:50:10;;;;;;;12.90;10.90;;;;;;;21.44;55.01;94873.31;5109768;28;20537;-71
2022/05/25 06:52:35;;;;;;;11.23;9.93;;;;;;;21.67;53.65;94874.88;5109301;28;20031;-71
2022/05/25 06:55:01;;;;;;;10.55;8.93;;;;;;;21.90;52.53;94869.31;5109402;28;20069;-72
2022/05/25 06:57:26;;;;;;;11.07;9.98;;;;;;;21.89;52.15;94880.91;5108581;28;20322;-72
2022/05/25 06:59:52;;;;;;;13.55;10.35;;;;;;;21.74;52.78;94876.56;5100383;28;20040;-71
2022/05/25 07:02:18;;;;;;;12.05;9.98;;;;;;;21.86;52.46;94877.66;5094572;28;20055;-72
2022/05/25 07:04:43;;;;;;;14.57;10.55;;;;;;;21.90;52.68;94882.53;5109573;28;20055;-71
2022/05/25 07:07:09;;;;;;;14.77;10.63;;;;;;;21.91;52.40;94863.03;5114643;27;20028;-71
2022/05/25 07:09:36;;;;;;;13.05;10.15;;;;;;;21.96;52.10;94868.56;5091547;28;20076;-71
2022/05/25 07:12:02;;;;;;;13.98;9.60;;;;;;;22.12;52.23;94875.34;5081526;28;20035;-71
2022/05/25 07:14:28;;;;;;;11.95;9.45;;;;;;;22.24;51.86;94871.16;5106053;28;20181;-71
2022/05/25 07:16:55;;;;;;;10.40;8.75;;;;;;;22.43;51.16;94878.34;5087012;28;20047;-74
2022/05/25 07:19:20;;;;;;;10.38;8.52;;;;;;;22.52;50.92;94871.84;5087744;28;20107;-75
2022/05/25 07:21:49;;;;;;;9.90;8.10;;;;;;;22.71;48.83;94880.88;5105537;28;20028;-72
2022/05/25 07:24:14;;;;;;;15.45;10.35;;;;;;;22.78;49.27;94888.00;5104825;28;20078;-73
2022/05/25 07:26:40;;;;;;;16.88;10.25;;;;;;;22.86;50.34;94888.63;5105322;28;20489;-73
2022/05/25 07:29:05;;;;;;;14.32;10.02;;;;;;;22.93;50.22;94878.06;5098778;28;20027;-73
2022/05/25 07:31:34;;;;;;;12.07;9.55;;;;;;;23.08;49.52;94896.44;5107280;28;20038;-73
2022/05/25 07:34:00;;;;;;;18.92;11.55;;;;;;;23.09;49.03;94893.56;5109527;28;20285;-72
2022/05/25 07:36:26;;;;;;;14.30;11.45;;;;;;;23.03;49.00;94891.75;5107363;28;20027;-73
2022/05/25 07:38:52;;;;;;;15.50;12.18;;;;;;;23.13;49.92;94894.81;5107103;28;20035;-73
2022/05/25 07:41:17;;;;;;;18.05;12.07;;;;;;;23.23;49.76;94878.50;5114817;28;20046;-72
2022/05/25 07:43:43;;;;;;;13.82;10.75;;;;;;;23.33;49.36;94883.41;5077307;28;20063;-73
2022/05/25 07:46:08;;;;;;;21.63;12.55;;;;;;;23.37;49.14;94885.47;5094749;28;20547;-73
2022/05/25 07:48:34;;;;;;;14.80;10.98;;;;;;;23.48;48.28;94891.94;5096512;28;20106;-73
2022/05/25 07:51:00;;;;;;;17.13;12.25;;;;;;;23.47;48.04;94870.97;5111153;28;20077;-72
2022/05/25 07:56:09;;;;;;;17.52;11.52;;;;;;;23.47;47.30;94877.06;5112056;28;20046;-72
2022/05/25 07:58:34;;;;;;;21.90;10.77;;;;;;;23.48;48.05;94873.41;5111708;28;20059;-72
2022/05/25 08:01:08;;;;;;;16.48;10.43;;;;;;;23.44;47.04;94869.53;5097561;27;20039;-72
2022/05/25 08:06:17;;;;;;;14.23;9.80;;;;;;;23.68;47.04;94859.28;5117801;27;20147;-72
2022/05/25 08:08:44;;;;;;;15.63;9.43;;;;;;;23.79;48.50;94866.66;5096492;28;20056;-72
2022/05/25 08:11:10;;;;;;;15.30;9.45;;;;;;;23.86;47.34;94857.66;5115995;27;20050;-72
2022/05/25 08:13:37;;;;;;;16.00;9.38;;;;;;;24.02;47.74;94863.56;5100674;28;20397;-72
2022/05/25 08:16:03;;;;;;;13.60;9.00;;;;;;;24.25;47.17;94871.81;5112482;27;20039;-72
2022/05/25 08:18:28;;;;;;;16.10;9.95;;;;;;;24.21;46.52;94870.63;5091456;28;20028;-74
2022/05/25 08:20:53;;;;;;;16.08;9.90;;;;;;;24.36;46.55;94867.69;5109412;28;20042;-72
2022/05/25 08:23:19;;;;;;;17.52;10.20;;;;;;;24.49;46.79;94864.22;5095600;28;20378;-72
2022/05/25 08:25:46;;;;;;;16.77;11.00;;;;;;;24.57;46.20;94866.59;5112423;28;20050;-72
2022/05/25 08:28:11;;;;;;;14.98;9.80;;;;;;;24.78;45.35;94862.81;5091001;28;20070;-73
2022/05/25 08:30:38;;;;;;;14.13;10.55;;;;;;;24.91;44.89;94860.06;5092230;28;20048;-70
2022/05/25 08:33:03;;;;;;;15.68;9.93;;;;;;;24.94;46.09;94846.34;5112386;28;20156;-70
2022/05/25 08:35:30;;;;;;;17.92;10.05;;;;;;;25.09;44.68;94856.66;5112173;28;20114;-71
2022/05/25 08:37:57;;;;;;;22.35;9.20;;;;;;;25.06;44.04;94856.28;5101258;28;20040;-70
2022/05/25 08:40:23;;;;;;;13.95;9.02;;;;;;;25.09;44.37;94848.69;5108753;28;20038;-70
2022/05/25 08:42:58;;;;;;;12.73;9.05;;;;;;;25.19;45.13;94858.88;5103773;28;20106;-70
2022/05/25 08:45:26;;;;;;;16.67;9.32;;;;;;;25.21;43.74;94867.44;5105288;28;20505;-70
2022/05/25 08:47:54;;;;;;;15.77;9.10;;;;;;;25.24;43.39;94869.69;5095821;28;20028;-71
2022/05/25 08:50:19;;;;;;;17.02;8.40;;;;;;;25.28;43.88;94875.38;5094913;28;20111;-70
2022/05/25 08:52:45;;;;;;;12.48;8.00;;;;;;;25.37;44.00;94864.25;5092220;28;20035;-70
2022/05/25 08:55:11;;;;;;;11.88;8.15;;;;;;;25.52;43.63;94863.91;5106146;28;20469;-70
2022/05/25 08:57:39;;;;;;;14.68;7.65;;;;;;;25.73;43.67;94870.66;5110440;28;20070;-71
2022/05/25 09:00:07;;;;;;;13.20;7.75;;;;;;;25.74;41.97;94863.50;5111945;28;20027;-70
2022/05/25 09:02:57;;;;;;;12.60;7.75;;;;;;;25.70;42.62;94872.97;5084351;28;20118;-70
2022/05/25 09:05:26;;;;;;;;;;;;;;;25.70;42.14;94868.44;5113602;28;20035;-70
2022/05/25 09:08:16;;;;;;;11.30;8.18;;;;;;;25.75;42.08;94875.78;5118899;27;19912;-70
2022/05/25 09:10:46;;;;;;;16.67;8.25;;;;;;;25.85;42.80;94876.94;5101115;28;20044;-70
2022/05/25 09:13:26;;;;;;;;;;;;;;;25.91;43.11;94869.09;5112815;27;20039;-70
2022/05/25 09:18:37;;;;;;;13.75;8.32;;;;;;;25.95;41.74;94870.28;5110764;28;20042;-70
2022/05/25 09:21:04;;;;;;;13.27;8.38;;;;;;;26.05;43.17;94867.94;5076964;28;20289;-71
2022/05/25 09:23:29;;;;;;;16.88;8.60;;;;;;;26.06;44.13;94869.53;5108676;28;20107;-71
2022/05/25 09:25:55;;;;;;;13.20;9.02;;;;;;;26.04;42.31;94866.28;5089867;28;20112;-71
2022/05/25 09:28:22;;;;;;;21.13;9.07;;;;;;;25.86;42.97;94861.78;5069437;28;20504;-72
2022/05/25 09:30:50;;;;;;;17.45;9.95;;;;;;;26.00;43.09;94879.22;5109498;28;20027;-70
2022/05/25 09:33:33;;;;;;;18.00;9.20;;;;;;;26.21;43.35;94885.94;5104185;28;20417;-70
2022/05/25 09:36:04;;;;;;;15.68;9.98;;;;;;;26.33;42.16;94882.53;5090697;28;20432;-70
2022/05/25 09:38:45;;;;;;;18.17;9.40;;;;;;;26.40;42.88;94886.75;5075565;28;20028;-70
2022/05/25 09:41:20;;;;;;;14.00;9.07;;;;;;;26.57;41.86;94894.16;5091884;28;20429;-71
2022/05/25 09:43:45;;;;;;;14.82;8.95;;;;;;;26.64;40.84;94882.38;5107759;28;20026;-71
2022/05/25 09:46:16;;;;;;;12.15;9.25;;;;;;;26.60;41.15;94878.53;5105891;28;20044;-71
2022/05/25 09:48:48;;;;;;;;;;;;;;;26.50;42.09;94872.91;5113588;28;20062;-71
2022/05/25 09:51:21;;;;;;;11.98;8.30;;;;;;;26.45;40.00;94864.78;5110263;28;19919;-70
2022/05/25 09:53:59;;;;;;;11.68;8.25;;;;;;;26.46;40.83;94866.41;5093484;28;20031;-71
2022/05/25 09:56:36;;;;;;;16.35;8.52;;;;;;;26.37;41.20;94863.25;5111112;28;20039;-71
2022/05/25 09:59:06;;;;;;;12.65;9.43;;;;;;;26.55;41.76;94867.78;5110311;28;20416;-71
2022/05/25 10:01:43;;;;;;;13.63;8.63;;;;;;;26.64;39.76;94865.59;5110802;28;20498;-71
2022/05/25 10:04:33;;;;;;;14.38;9.23;;;;;;;26.73;40.00;94865.03;5093855;28;20054;-71
2022/05/25 10:06:58;;;;;;;18.53;9.00;;;;;;;26.81;40.14;94855.13;5095799;28;20027;-71
2022/05/25 10:09:28;;;;;;;14.93;8.57;;;;;;;26.81;39.99;94849.78;5109347;28;20020;-71
2022/05/25 10:11:58;;;;;;;15.57;9.00;;;;;;;26.87;40.46;94840.88;5109234;28;20036;-71
2022/05/25 10:14:38;;;;;;;14.65;9.52;;;;;;;26.97;41.10;94841.16;5093131;28;20425;-71
2022/05/25 10:17:11;;;;;;;12.68;8.32;;;;;;;27.08;40.34;94844.84;5092820;28;20567;-71
2022/05/25 10:19:48;;;;;;;12.88;9.18;;;;;;;27.26;40.30;94822.66;5110282;28;20051;-71
2022/05/25 10:22:33;;;;;;;14.75;8.77;;;;;;;27.32;39.35;94835.88;5111325;28;20103;-70
2022/05/25 10:25:06;;;;;;;16.35;9.07;;;;;;;27.43;39.06;94836.94;5112316;28;20032;-71
2022/05/25 10:27:42;;;;;;;14.40;8.93;;;;;;;27.28;39.06;94839.25;5095270;28;20098;-71
2022/05/25 10:36:47;;;;;;;17.95;9.52;;;;;;;27.44;39.05;94835.88;5097016;28;20408;-71
2022/05/25 10:39:23;;;;;;;18.45;9.55;;;;;;;27.51;38.95;94833.94;5096357;28;20066;-71
2022/05/25 10:42:23;;;;;;;16.25;8.88;;;;;;;27.59;38.60;94833.59;5094500;28;20039;-71
2022/05/25 10:44:58;;;;;;;14.02;9.27;;;;;;;27.77;38.92;94829.97;5111869;28;20050;-71
2022/05/25 10:50:27;;;;;;;17.15;9.20;;;;;;;27.96;38.31;94821.84;5112132;28;20055;-71
2022/05/25 10:53:22;;;;;;;18.95;9.63;;;;;;;27.89;37.87;94816.66;5111958;28;20031;-71
2022/05/25 10:56:06;;;;;;;18.75;9.65;;;;;;;27.93;37.31;94809.78;5110698;28;20041;-71
2022/05/25 10:58:37;;;;;;;17.27;9.57;;;;;;;27.89;37.29;94807.81;5111830;28;20031;-71
2022/05/25 11:01:25;;;;;;;16.48;9.77;;;;;;;27.95;37.35;94799.69;5112143;28;20062;-71
2022/05/25 11:04:23;;;;;;;15.00;9.40;;;;;;;28.05;37.15;94794.56;5111805;28;20020;-71
2022/05/25 11:07:05;;;;;;;22.08;9.95;;;;;;;28.08;37.90;94795.94;5111679;28;20106;-71
2022/05/25 11:09:55;;;;;;;17.58;9.65;;;;;;;28.17;37.52;94788.38;5110448;28;20062;-71
2022/05/25 11:12:21;;;;;;;;;;;;;;;28.23;37.60;94785.56;5112139;28;20024;-71
2022/05/25 11:15:13;;;;;;;15.37;8.80;;;;;;;28.36;37.85;94789.84;5111568;28;20278;-71
2022/05/25 11:17:55;;;;;;;16.80;9.18;;;;;;;28.46;36.55;94784.69;5111523;28;20020;-71
2022/05/25 11:20:32;;;;;;;16.38;9.50;;;;;;;28.51;35.12;94779.44;5110325;28;20039;-71
2022/05/25 11:23:21;;;;;;;22.10;9.30;;;;;;;28.66;35.78;94772.75;5110184;28;20027;-71
2022/05/25 11:25:52;;;;;;;15.65;9.13;;;;;;;28.70;34.98;94779.25;5100700;28;20047;-71
2022/05/25 11:28:36;;;;;;;17.42;9.27;;;;;;;28.73;35.35;94770.75;5111387;28;20035;-71
2022/05/25 11:31:13;;;;;;;16.00;9.55;;;;;;;28.83;35.90;94768.22;5110136;28;20153;-72
2022/05/25 11:33:59;;;;;;;16.88;9.10;;;;;;;28.99;35.48;94771.16;5111350;28;20028;-72
2022/05/25 11:36:42;;;;;;;18.02;9.23;;;;;;;29.08;35.22;94773.22;5110209;28;20481;-71
2022/05/25 11:39:38;;;;;;;15.27;9.07;;;;;;;29.17;34.51;94765.63;5111302;28;20040;-71
2022/05/25 11:42:32;;;;;;;13.57;9.30;;;;;;;29.34;34.51;94774.44;5094715;28;20096;-71
2022/05/25 11:45:34;;;;;;;18.27;9.20;;;;;;;29.42;33.72;94767.84;5111016;28;20447;-71
2022/05/25 11:48:06;;;;;;;19.90;9.80;;;;;;;29.46;34.06;94770.84;5111238;28;20035;-71
2022/05/25 11:50:34;;;;;;;20.20;9.45;;;;;;;29.48;32.79;94763.38;5111360;28;20039;-71
2022/05/25 11:53:42;;;;;;;23.98;9.45;;;;;;;29.43;32.72;94763.31;5111182;28;20120;-71
2022/05/25 11:56:26;;;;;;;19.02;9.05;;;;;;;29.53;33.31;94756.25;5109748;28;20058;-71
2022/05/25 11:59:00;;;;;;;21.00;9.10;;;;;;;29.63;33.59;94747.56;5111102;28;20019;-71
2022/05/25 12:01:29;;;;;;;18.90;8.88;;;;;;;29.64;32.39;94749.16;5111507;28;20039;-71
2022/05/25 12:04:16;;;;;;;19.13;9.57;;;;;;;29.67;32.46;94746.03;5109734;28;20115;-72
2022/05/25 12:06:50;;;;;;;28.63;9.30;;;;;;;29.58;32.80;94748.25;5111405;28;20485;-71
2022/05/25 12:09:34;;;;;;;25.10;9.27;;;;;;;29.68;33.42;94742.28;5111047;28;20051;-71
2022/05/25 12:12:35;;;;;;;24.83;9.07;;;;;;;29.73;32.39;94738.88;5109673;28;20050;-71
2022/05/25 12:15:11;;;;;;;18.25;9.18;;;;;;;29.75;33.13;94731.38;5110044;28;20485;-72
2022/05/25 12:17:55;;;;;;;22.88;8.52;;;;;;;29.61;31.19;94728.22;5109719;28;20416;-71